createdAt,value
2023-01-22T00:00:06.855Z,8.98
2023-01-22T00:05:09.160Z,9.10
2023-01-22T00:10:12.012Z,9.98
2023-01-22T00:15:13.699Z,9.40
2023-01-22T00:20:15.759Z,10.93
2023-01-22T00:25:17.911Z,11.65
2023-01-22T00:30:20.368Z,7.78
2023-01-22T00:35:22.021Z,9.07
2023-01-22T00:40:23.728Z,9.85
2023-01-22T00:45:25.348Z,11.05
2023-01-22T00:50:27.133Z,8.13
2023-01-22T00:55:28.755Z,11.20
2023-01-22T01:00:31.034Z,8.57
2023-01-22T01:05:33.371Z,8.38
2023-01-22T01:10:35.027Z,8.50
2023-01-22T01:15:36.712Z,8.82
2023-01-22T01:20:38.681Z,11.40
2023-01-22T01:25:42.209Z,10.95
2023-01-22T01:30:44.837Z,8.85
2023-01-22T01:35:46.524Z,7.65
2023-01-22T01:40:48.170Z,10.43
2023-01-22T01:45:50.077Z,8.60
2023-01-22T01:51:14.108Z,8.75
2023-01-22T01:56:23.380Z,7.72
2023-01-22T02:01:26.265Z,9.52
2023-01-22T02:06:28.274Z,9.50
2023-01-22T02:11:32.248Z,8.98
2023-01-22T02:16:34.088Z,9.02
2023-01-22T02:21:38.898Z,10.38
2023-01-22T02:26:42.083Z,9.93
2023-01-22T02:31:43.799Z,10.02
2023-01-22T02:36:45.609Z,9.40
2023-01-22T02:41:47.340Z,7.00
2023-01-22T02:46:49.034Z,9.35
2023-01-22T02:51:50.822Z,7.95
2023-01-22T02:56:52.529Z,9.70
2023-01-22T03:01:54.347Z,9.55
2023-01-22T03:06:55.979Z,7.75
2023-01-22T03:11:59.032Z,7.57
2023-01-22T03:17:19.416Z,9.07
2023-01-22T03:22:21.227Z,6.80
2023-01-22T03:27:24.729Z,9.18
2023-01-22T03:32:26.423Z,8.45
2023-01-22T03:37:28.043Z,8.48
2023-01-22T03:42:29.711Z,9.40
2023-01-22T03:47:31.385Z,8.68
2023-01-22T03:52:33.029Z,8.32
2023-01-22T03:57:34.676Z,9.82
2023-01-22T04:02:37.877Z,10.43
2023-01-22T04:07:39.556Z,9.57
2023-01-22T04:12:41.165Z,7.45
2023-01-22T04:17:42.872Z,9.90
2023-01-22T04:22:44.577Z,5.95
2023-01-22T04:27:46.289Z,6.22
2023-01-22T04:32:47.952Z,7.88
2023-01-22T04:37:49.770Z,5.53
2023-01-22T04:42:51.419Z,4.85
2023-01-22T04:47:53.078Z,5.55
2023-01-22T04:52:55.923Z,7.05
2023-01-22T04:57:59.174Z,6.30
2023-01-22T05:03:03.011Z,5.15
2023-01-22T05:08:04.802Z,5.18
2023-01-22T05:13:07.327Z,5.53
2023-01-22T05:18:09.066Z,5.18
2023-01-22T05:23:10.855Z,4.70
2023-01-22T05:28:12.497Z,6.28
2023-01-22T05:33:14.113Z,5.25
2023-01-22T05:38:15.807Z,4.70
2023-01-22T05:43:17.492Z,4.18
2023-01-22T05:48:19.158Z,4.20
2023-01-22T05:53:20.783Z,5.00
2023-01-22T05:58:22.495Z,4.15
2023-01-22T06:03:24.858Z,4.95
2023-01-22T06:08:27.738Z,4.93
2023-01-22T06:13:30.152Z,3.30
2023-01-22T06:18:32.003Z,3.83
2023-01-22T06:23:34.372Z,3.97
2023-01-22T06:28:36.029Z,3.65
2023-01-22T06:33:38.818Z,4.03
2023-01-22T06:38:40.490Z,4.20
2023-01-22T06:43:42.249Z,3.80
2023-01-22T06:48:44.041Z,3.72
2023-01-22T06:53:46.290Z,4.97
2023-01-22T06:58:47.918Z,3.55
2023-01-22T07:03:49.544Z,3.45
2023-01-22T07:08:52.162Z,5.25
2023-01-22T07:13:53.855Z,3.75
2023-01-22T07:18:55.618Z,3.30
2023-01-22T07:23:57.324Z,3.47
2023-01-22T07:28:59.001Z,4.43
2023-01-22T07:34:00.695Z,3.63
2023-01-22T07:39:06.349Z,3.25
2023-01-22T07:44:08.614Z,3.53
2023-01-22T07:49:11.365Z,3.30
2023-01-22T07:54:13.052Z,4.47
2023-01-22T07:59:14.711Z,3.83
2023-01-22T08:04:16.379Z,3.05
2023-01-22T08:09:24.786Z,3.95
2023-01-22T08:14:26.598Z,4.22
2023-01-22T08:19:29.659Z,3.63
2023-01-22T08:24:31.874Z,3.85
2023-01-22T08:29:33.614Z,5.45
2023-01-22T08:34:35.314Z,3.22
2023-01-22T08:39:36.990Z,3.03
2023-01-22T08:44:38.781Z,2.88
2023-01-22T08:49:40.646Z,3.92
2023-01-22T08:54:42.470Z,3.67
2023-01-22T08:59:52.566Z,2.67
2023-01-22T09:05:01.561Z,1.90
2023-01-22T09:10:04.397Z,1.95
2023-01-22T09:15:07.736Z,2.03
2023-01-22T09:20:09.882Z,1.92
2023-01-22T09:25:11.844Z,4.18
2023-01-22T09:30:17.185Z,2.28
2023-01-22T09:35:19.220Z,1.38
2023-01-22T09:40:43.215Z,2.72
2023-01-22T09:45:45.635Z,3.30
2023-01-22T09:50:48.461Z,3.10
2023-01-22T09:55:55.243Z,4.25
2023-01-22T10:01:05.735Z,1.52
2023-01-22T10:06:11.156Z,3.03
2023-01-22T10:11:12.846Z,3.85
2023-01-22T10:16:14.524Z,3.47
2023-01-22T10:21:16.215Z,4.10
2023-01-22T10:26:29.322Z,3.53
2023-01-22T10:31:36.757Z,3.83
2023-01-22T10:36:39.710Z,4.28
2023-01-22T10:41:43.139Z,4.20
2023-01-22T10:46:46.570Z,3.38
2023-01-22T10:51:58.072Z,5.15
2023-01-22T10:57:27.007Z,4.32
2023-01-22T11:02:29.760Z,3.72
2023-01-22T11:07:33.442Z,3.88
2023-01-22T11:12:46.597Z,3.67
2023-01-22T11:17:56.065Z,3.15
2023-01-22T11:23:03.908Z,3.63
2023-01-22T11:28:21.488Z,3.30
2023-01-22T11:33:37.326Z,2.30
2023-01-22T11:38:51.506Z,2.42
2023-01-22T11:44:10.666Z,3.53
2023-01-22T11:49:38.370Z,2.60
2023-01-22T11:54:46.103Z,2.60
2023-01-22T12:00:10.473Z,3.40
2023-01-22T12:05:20.810Z,4.00
2023-01-22T12:10:36.834Z,3.05
2023-01-22T12:15:55.295Z,2.53
2023-01-22T12:21:26.361Z,3.90
2023-01-22T12:26:33.243Z,2.90
2023-01-22T12:31:38.518Z,2.65
2023-01-22T12:36:41.290Z,1.83
2023-01-22T12:41:53.819Z,1.77
2023-01-22T12:46:58.658Z,2.50
2023-01-22T12:52:00.469Z,2.78
2023-01-22T12:57:14.550Z,3.25
2023-01-22T13:02:46.262Z,5.32
2023-01-22T13:07:50.187Z,2.45
2023-01-22T13:12:58.924Z,2.83
2023-01-22T13:18:20.832Z,3.55
2023-01-22T13:23:23.207Z,3.30
2023-01-22T13:28:26.970Z,2.95
2023-01-22T13:33:30.030Z,2.58
2023-01-22T13:38:35.065Z,2.80
2023-01-22T13:43:38.836Z,3.30
2023-01-22T13:48:41.772Z,2.97
2023-01-22T13:53:51.467Z,3.42
2023-01-22T13:59:35.347Z,2.20
2023-01-22T14:04:37.582Z,2.53
2023-01-22T14:09:40.610Z,2.92
2023-01-22T14:14:43.620Z,1.75
2023-01-22T14:19:45.473Z,2.35
2023-01-22T14:24:47.789Z,2.22
2023-01-22T14:29:51.282Z,2.92
2023-01-22T14:34:53.908Z,3.10
2023-01-22T14:39:57.549Z,4.20
2023-01-22T14:44:59.917Z,3.50
2023-01-22T14:50:04.605Z,3.80
2023-01-22T14:55:07.279Z,2.95
2023-01-22T15:00:13.237Z,3.80
2023-01-22T15:05:15.470Z,2.87
2023-01-22T15:10:18.822Z,3.97
2023-01-22T15:15:28.809Z,4.40
2023-01-22T15:20:31.075Z,4.45
2023-01-22T15:25:34.479Z,3.78
2023-01-22T15:30:36.436Z,4.35
2023-01-22T15:35:38.125Z,3.85
2023-01-22T15:40:39.887Z,5.13
2023-01-22T15:45:42.345Z,7.63
2023-01-22T15:50:44.531Z,9.02
2023-01-22T15:55:50.613Z,10.30
2023-01-22T16:00:52.998Z,16.27
2023-01-22T16:05:55.084Z,18.13
2023-01-22T16:10:57.418Z,17.05
2023-01-22T16:16:14.185Z,14.55
2023-01-22T16:21:18.007Z,13.38
2023-01-22T16:26:23.976Z,7.68
2023-01-22T16:31:29.569Z,7.10
2023-01-22T16:36:33.678Z,6.50
2023-01-22T16:41:37.170Z,6.35
2023-01-22T16:46:42.260Z,8.32
2023-01-22T16:51:47.721Z,8.90
2023-01-22T16:56:51.083Z,9.20
2023-01-22T17:01:56.608Z,8.63
2023-01-22T17:07:00.605Z,9.77
2023-01-22T17:12:05.368Z,6.20
2023-01-22T17:17:09.439Z,6.40
2023-01-22T17:22:13.776Z,5.78
2023-01-22T17:27:19.010Z,6.68
2023-01-22T17:32:23.080Z,6.38
2023-01-22T17:37:27.030Z,6.22
2023-01-22T17:42:31.226Z,8.40
2023-01-22T17:47:33.927Z,6.75
2023-01-22T17:52:37.218Z,11.52
2023-01-22T17:57:41.407Z,13.68
2023-01-22T18:02:44.211Z,14.10
2023-01-22T18:07:46.628Z,9.43
2023-01-22T18:12:49.728Z,7.15
2023-01-22T18:17:53.748Z,5.88
2023-01-22T18:22:56.325Z,7.30
2023-01-22T18:27:59.093Z,10.75
2023-01-22T18:33:01.997Z,5.25
2023-01-22T18:38:04.320Z,7.30
2023-01-22T18:43:09.519Z,7.13
2023-01-22T18:48:16.283Z,7.63
2023-01-22T18:53:18.755Z,5.25
2023-01-22T18:58:31.631Z,6.78
2023-01-22T19:03:33.914Z,7.05
2023-01-22T19:08:37.733Z,6.95
2023-01-22T19:13:41.661Z,8.98
2023-01-22T19:18:47.085Z,9.10
2023-01-22T19:23:53.858Z,10.68
2023-01-22T19:28:59.001Z,7.57
2023-01-22T19:34:02.431Z,10.13
2023-01-22T19:39:09.662Z,8.00
2023-01-22T19:44:18.209Z,9.27
2023-01-22T19:49:21.968Z,10.18
2023-01-22T19:54:25.233Z,8.93
2023-01-22T19:59:27.851Z,8.98
2023-01-22T20:04:34.032Z,7.97
2023-01-22T20:09:38.211Z,6.65
2023-01-22T20:14:43.945Z,9.02
2023-01-22T20:19:46.592Z,8.30
2023-01-22T20:24:49.583Z,8.95
2023-01-22T20:29:52.348Z,10.30
2023-01-22T20:34:55.039Z,12.05
2023-01-22T20:39:59.399Z,9.85
2023-01-22T20:45:02.020Z,9.77
2023-01-22T20:50:06.219Z,9.65
2023-01-22T20:55:10.589Z,9.15
2023-01-22T21:00:14.289Z,8.77
2023-01-22T21:05:17.687Z,7.68
2023-01-22T21:10:20.597Z,9.18
2023-01-22T21:15:23.182Z,9.80
2023-01-22T21:20:26.519Z,10.18
2023-01-22T21:25:28.993Z,11.57
2023-01-22T21:30:31.595Z,11.88
2023-01-22T21:35:33.791Z,9.93
2023-01-22T21:40:36.945Z,10.13
2023-01-22T21:46:01.318Z,10.50
2023-01-22T21:51:03.864Z,9.38
2023-01-22T21:56:06.453Z,7.88
2023-01-22T22:01:09.451Z,10.60
2023-01-22T22:06:13.373Z,9.27
2023-01-22T22:11:15.049Z,9.63
2023-01-22T22:16:16.748Z,9.95
2023-01-22T22:21:18.469Z,9.75
2023-01-22T22:26:20.109Z,12.43
2023-01-22T22:31:21.838Z,11.10
2023-01-22T22:36:26.037Z,10.15
2023-01-22T22:41:30.505Z,9.05
2023-01-22T22:46:35.796Z,9.52
2023-01-22T22:51:39.419Z,7.80
2023-01-22T22:56:41.094Z,11.65
2023-01-22T23:01:42.809Z,12.10
2023-01-22T23:06:46.010Z,10.48
2023-01-22T23:11:51.698Z,10.77
2023-01-22T23:16:53.487Z,8.80
2023-01-22T23:21:58.507Z,8.15
2023-01-22T23:27:00.222Z,8.15
2023-01-22T23:32:01.822Z,5.95
2023-01-22T23:37:03.518Z,8.77
2023-01-22T23:42:05.168Z,8.90
2023-01-22T23:47:06.880Z,15.40
2023-01-22T23:52:08.619Z,8.80
2023-01-22T23:57:10.215Z,7.10
